createdAt,value
2018-06-07T00:02:19.944Z,0.40
2018-06-07T00:04:48.520Z,1.97
2018-06-07T00:07:17.104Z,0.70
2018-06-07T00:09:45.678Z,0.83
2018-06-07T00:12:14.315Z,1.40
2018-06-07T00:14:42.952Z,1.07
2018-06-07T00:17:11.549Z,0.90
2018-06-07T00:19:40.115Z,0.30
2018-06-07T00:22:08.699Z,2.60
2018-06-07T00:24:37.274Z,1.60
2018-06-07T00:27:05.881Z,1.90
2018-06-07T00:29:34.448Z,0.30
2018-06-07T00:32:03.086Z,0.50
2018-06-07T00:34:31.292Z,1.10
2018-06-07T00:36:59.857Z,1.27
2018-06-07T00:39:28.450Z,0.60
2018-06-07T00:41:57.024Z,0.87
2018-06-07T00:44:25.613Z,0.77
2018-06-07T00:46:54.204Z,1.50
2018-06-07T00:49:22.784Z,0.60
2018-06-07T00:51:51.396Z,1.47
2018-06-07T00:54:19.966Z,1.23
2018-06-07T00:56:59.652Z,2.57
2018-06-07T00:59:27.975Z,1.20
2018-06-07T01:01:56.566Z,0.50
2018-06-07T01:04:25.151Z,0.60
2018-06-07T01:06:53.731Z,1.83
2018-06-07T01:09:22.320Z,0.70
2018-06-07T01:11:50.916Z,0.70
2018-06-07T01:14:19.524Z,2.50
2018-06-07T01:16:47.843Z,1.47
2018-06-07T01:19:16.456Z,1.00
2018-06-07T01:21:45.073Z,0.50
2018-06-07T01:24:14.312Z,1.03
2018-06-07T01:26:42.911Z,2.53
2018-06-07T01:29:27.192Z,0.70
2018-06-07T01:34:10.394Z,0.40
2018-06-07T01:36:39.287Z,1.70
2018-06-07T01:39:11.185Z,1.07
2018-06-07T01:41:39.757Z,1.17
2018-06-07T01:44:08.333Z,0.67
2018-06-07T01:46:36.988Z,1.60
2018-06-07T01:49:05.604Z,0.63
2018-06-07T01:51:34.254Z,0.30
2018-06-07T01:54:02.824Z,0.57
2018-06-07T01:56:31.392Z,0.50
2018-06-07T01:58:59.975Z,0.37
2018-06-07T02:01:28.583Z,1.07
2018-06-07T02:03:57.187Z,0.90
2018-06-07T02:06:25.773Z,0.70
2018-06-07T02:08:54.336Z,0.60
2018-06-07T02:11:22.939Z,1.10
2018-06-07T02:13:51.274Z,1.00
2018-06-07T02:16:19.871Z,2.37
2018-06-07T02:18:48.436Z,0.30
2018-06-07T02:21:17.027Z,0.40
2018-06-07T02:23:45.863Z,0.70
2018-06-07T02:26:15.544Z,0.73
2018-06-07T02:28:44.904Z,0.60
2018-06-07T02:31:13.516Z,0.30
2018-06-07T02:33:42.696Z,2.03
2018-06-07T02:36:11.280Z,0.77
2018-06-07T02:38:39.864Z,0.70
2018-06-07T02:41:08.464Z,1.73
2018-06-07T02:43:37.061Z,0.67
2018-06-07T02:46:05.392Z,1.03
2018-06-07T02:48:34.164Z,0.90
2018-06-07T02:51:02.932Z,1.23
2018-06-07T02:53:31.502Z,1.10
2018-06-07T02:55:59.752Z,0.60
2018-06-07T02:58:28.320Z,0.47
2018-06-07T03:00:56.903Z,0.60
2018-06-07T03:03:25.467Z,3.33
2018-06-07T03:05:54.040Z,1.37
2018-06-07T03:08:22.687Z,1.53
2018-06-07T03:10:50.919Z,2.20
2018-06-07T03:13:19.507Z,0.80
2018-06-07T03:15:47.745Z,1.20
2018-06-07T03:18:16.304Z,1.20
2018-06-07T03:20:44.900Z,0.90
2018-06-07T03:23:13.476Z,1.37
2018-06-07T03:25:42.075Z,1.03
2018-06-07T03:28:10.648Z,1.33
2018-06-07T03:30:39.240Z,1.37
2018-06-07T03:33:07.820Z,1.03
2018-06-07T03:35:36.409Z,0.87
2018-06-07T03:38:05.002Z,0.83
2018-06-07T03:40:33.568Z,2.10
2018-06-07T03:43:02.152Z,3.37
2018-06-07T03:45:30.721Z,1.80
2018-06-07T03:47:59.583Z,0.87
2018-06-07T03:50:28.611Z,1.17
2018-06-07T03:52:57.196Z,1.67
2018-06-07T03:55:25.778Z,2.60
2018-06-07T03:57:54.356Z,1.47
2018-06-07T04:00:22.916Z,1.53
2018-06-07T04:02:51.483Z,2.47
2018-06-07T04:05:20.050Z,2.70
2018-06-07T04:07:48.951Z,0.70
2018-06-07T04:10:17.319Z,2.30
2018-06-07T04:12:45.885Z,0.90
2018-06-07T04:15:14.486Z,1.43
2018-06-07T04:17:43.060Z,2.27
2018-06-07T04:20:11.980Z,2.43
2018-06-07T04:22:40.550Z,1.53
2018-06-07T04:25:09.124Z,1.13
2018-06-07T04:27:37.347Z,3.53
2018-06-07T04:30:05.919Z,1.40
2018-06-07T04:32:34.540Z,2.20
2018-06-07T04:35:03.118Z,1.20
2018-06-07T04:37:31.685Z,1.63
2018-06-07T04:40:00.245Z,2.50
2018-06-07T04:42:28.805Z,1.53
2018-06-07T04:44:57.412Z,1.50
2018-06-07T04:47:26.018Z,2.00
2018-06-07T04:49:54.587Z,1.70
2018-06-07T04:52:23.157Z,2.20
2018-06-07T04:54:51.842Z,2.07
2018-06-07T04:57:20.455Z,0.80
2018-06-07T04:59:49.028Z,1.47
2018-06-07T05:02:17.624Z,0.73
2018-06-07T05:04:46.520Z,1.87
2018-06-07T05:07:15.148Z,1.67
2018-06-07T05:09:43.738Z,1.67
2018-06-07T05:12:12.308Z,2.33
2018-06-07T05:14:40.870Z,1.57
2018-06-07T05:17:09.461Z,3.57
2018-06-07T05:19:38.036Z,0.50
2018-06-07T05:22:06.648Z,1.83
2018-06-07T05:24:35.220Z,1.43
2018-06-07T05:27:03.795Z,1.40
2018-06-07T05:29:32.359Z,3.13
2018-06-07T05:32:00.980Z,1.53
2018-06-07T05:34:30.099Z,1.50
2018-06-07T05:36:58.740Z,2.57
2018-06-07T05:39:27.307Z,1.00
2018-06-07T05:41:55.881Z,0.90
2018-06-07T05:44:24.506Z,2.87
2018-06-07T05:46:53.140Z,1.83
2018-06-07T05:49:21.671Z,1.93
2018-06-07T05:51:50.252Z,2.93
2018-06-07T05:54:18.894Z,2.40
2018-06-07T05:56:47.510Z,1.37
2018-06-07T05:59:16.107Z,4.53
2018-06-07T06:01:44.683Z,1.23
2018-06-07T06:04:13.268Z,1.63
2018-06-07T06:06:42.428Z,2.60
2018-06-07T06:09:11.367Z,2.43
2018-06-07T06:11:39.965Z,1.20
2018-06-07T06:14:08.580Z,1.30
2018-06-07T06:16:37.168Z,3.30
2018-06-07T06:19:05.976Z,2.30
2018-06-07T06:21:34.548Z,4.00
2018-06-07T06:24:03.173Z,2.07
2018-06-07T06:26:31.740Z,4.60
2018-06-07T06:29:00.612Z,1.20
2018-06-07T06:31:29.193Z,1.07
2018-06-07T06:33:57.764Z,3.97
2018-06-07T06:36:26.376Z,1.60
2018-06-07T06:38:54.973Z,1.50
2018-06-07T06:41:24.264Z,3.80
2018-06-07T06:43:52.856Z,3.20
2018-06-07T06:46:21.432Z,2.23
2018-06-07T06:48:50.004Z,2.67
2018-06-07T06:51:18.603Z,1.37
2018-06-07T06:53:47.443Z,3.27
2018-06-07T06:56:16.679Z,2.77
2018-06-07T06:58:45.263Z,1.23
2018-06-07T07:01:14.694Z,1.77
2018-06-07T07:03:43.861Z,2.90
2018-06-07T07:06:12.483Z,4.10
2018-06-07T07:08:41.088Z,0.73
2018-06-07T07:11:09.677Z,1.13
2018-06-07T07:13:38.467Z,3.37
2018-06-07T07:16:07.048Z,1.73
2018-06-07T07:18:35.629Z,2.70
2018-06-07T07:21:04.247Z,2.13
2018-06-07T07:23:32.812Z,2.53
2018-06-07T07:26:01.399Z,1.53
2018-06-07T07:28:29.975Z,1.63
2018-06-07T07:30:58.547Z,1.83
2018-06-07T07:33:27.123Z,3.53
2018-06-07T07:35:55.707Z,1.40
2018-06-07T07:38:24.284Z,3.33
2018-06-07T07:40:52.857Z,3.13
2018-06-07T07:43:21.444Z,2.63
2018-06-07T07:45:50.050Z,3.30
2018-06-07T07:48:18.632Z,1.37
2018-06-07T07:50:47.216Z,2.83
2018-06-07T07:53:15.788Z,1.60
2018-06-07T07:55:44.356Z,2.20
2018-06-07T07:58:12.952Z,2.50
2018-06-07T08:00:41.829Z,0.83
2018-06-07T08:03:10.484Z,2.53
2018-06-07T08:05:39.119Z,3.13
2018-06-07T08:08:07.666Z,2.27
2018-06-07T08:10:36.252Z,2.43
2018-06-07T08:13:04.840Z,3.50
2018-06-07T08:15:33.434Z,0.90
2018-06-07T08:18:02.011Z,3.90
2018-06-07T08:20:30.597Z,3.87
2018-06-07T08:22:59.216Z,2.63
2018-06-07T08:25:27.791Z,1.20
2018-06-07T08:27:56.376Z,1.83
2018-06-07T08:30:24.953Z,1.00
2018-06-07T08:32:53.175Z,3.43
2018-06-07T08:35:21.753Z,2.87
2018-06-07T08:37:50.317Z,0.93
2018-06-07T08:40:18.947Z,1.53
2018-06-07T08:42:47.516Z,2.47
2018-06-07T08:45:16.097Z,3.53
2018-06-07T08:47:44.724Z,4.60
2018-06-07T08:50:13.287Z,3.40
2018-06-07T08:52:41.856Z,3.57
2018-06-07T08:55:11.037Z,1.53
2018-06-07T08:57:39.604Z,2.33
2018-06-07T09:00:08.254Z,3.70
2018-06-07T09:02:36.796Z,3.60
2018-06-07T09:05:05.356Z,3.03
2018-06-07T09:07:33.924Z,1.93
2018-06-07T09:10:02.710Z,2.53
2018-06-07T09:12:31.312Z,1.73
2018-06-07T09:14:59.893Z,2.63
2018-06-07T09:17:28.465Z,3.13
2018-06-07T09:19:57.027Z,1.83
2018-06-07T09:22:25.251Z,2.70
2018-06-07T09:24:53.853Z,1.80
2018-06-07T09:27:22.477Z,3.30
2018-06-07T09:29:51.053Z,3.93
2018-06-07T09:32:19.620Z,1.50
2018-06-07T09:34:48.191Z,1.90
2018-06-07T09:37:17.720Z,1.67
2018-06-07T09:39:46.300Z,4.47
2018-06-07T09:42:14.884Z,2.17
2018-06-07T09:44:43.460Z,4.10
2018-06-07T09:47:12.048Z,1.87
2018-06-07T09:49:40.664Z,3.80
2018-06-07T09:52:09.212Z,3.07
2018-06-07T09:54:37.806Z,3.10
2018-06-07T09:57:06.383Z,2.63
2018-06-07T09:59:34.952Z,3.67
2018-06-07T10:02:03.563Z,2.60
2018-06-07T10:04:32.123Z,4.87
2018-06-07T10:07:00.695Z,2.27
2018-06-07T10:09:29.300Z,4.60
2018-06-07T10:11:58.457Z,7.30
2018-06-07T10:14:27.841Z,5.87
2018-06-07T10:16:56.422Z,3.40
2018-06-07T10:19:25.012Z,3.23
2018-06-07T10:21:53.600Z,3.10
2018-06-07T10:24:22.164Z,5.27
2018-06-07T10:26:50.764Z,2.10
2018-06-07T10:29:19.371Z,6.47
2018-06-07T10:31:47.931Z,6.27
2018-06-07T10:34:16.495Z,5.47
2018-06-07T10:36:45.084Z,5.37
2018-06-07T10:39:13.680Z,5.93
2018-06-07T10:41:42.019Z,5.57
2018-06-07T10:44:10.589Z,6.23
2018-06-07T10:46:39.544Z,2.80
2018-06-07T10:49:08.107Z,3.10
2018-06-07T10:51:36.732Z,4.43
2018-06-07T10:54:05.323Z,2.90
2018-06-07T10:56:33.903Z,4.97
2018-06-07T10:59:02.482Z,3.83
2018-06-07T11:01:31.068Z,3.13
2018-06-07T11:03:59.668Z,5.73
2018-06-07T11:06:28.232Z,5.10
2018-06-07T11:08:56.891Z,7.60
2018-06-07T11:11:25.463Z,6.77
2018-06-07T11:13:54.044Z,5.47
2018-06-07T11:16:22.307Z,6.90
2018-06-07T11:18:50.876Z,2.80
2018-06-07T11:21:19.460Z,5.90
2018-06-07T11:23:48.012Z,5.03
2018-06-07T11:26:16.692Z,6.80
2018-06-07T11:28:45.328Z,4.03
2018-06-07T11:31:13.891Z,4.37
2018-06-07T11:33:42.492Z,3.73
2018-06-07T11:36:11.072Z,5.97
2018-06-07T11:38:39.640Z,3.03
2018-06-07T11:41:08.255Z,5.70
2018-06-07T11:43:36.823Z,6.03
2018-06-07T11:46:05.753Z,5.80
2018-06-07T11:48:34.312Z,6.77
2018-06-07T11:51:02.887Z,3.83
2018-06-07T11:53:31.476Z,6.03
2018-06-07T11:56:00.272Z,3.50
2018-06-07T11:58:28.851Z,6.90
2018-06-07T12:00:57.853Z,4.97
2018-06-07T12:03:26.407Z,3.27
2018-06-07T12:05:55.004Z,3.60
2018-06-07T12:08:23.578Z,5.03
2018-06-07T12:10:52.753Z,5.77
2018-06-07T12:13:21.390Z,3.30
2018-06-07T12:15:50.139Z,4.63
2018-06-07T12:18:18.731Z,4.20
2018-06-07T12:20:47.295Z,6.40
2018-06-07T12:23:15.908Z,6.17
2018-06-07T12:25:44.491Z,4.37
2018-06-07T12:28:13.056Z,8.83
2018-06-07T12:30:41.656Z,4.47
2018-06-07T12:33:10.232Z,6.03
2018-06-07T12:35:38.810Z,4.73
2018-06-07T12:38:07.376Z,9.20
2018-06-07T12:40:36.000Z,9.67
2018-06-07T12:43:04.592Z,6.73
2018-06-07T12:45:33.196Z,5.13
2018-06-07T12:48:01.773Z,6.37
2018-06-07T12:50:30.353Z,6.60
2018-06-07T12:52:58.979Z,6.30
2018-06-07T12:55:27.555Z,6.00
2018-06-07T12:57:56.141Z,9.63
2018-06-07T13:00:24.715Z,4.50
2018-06-07T13:02:53.293Z,7.47
2018-06-07T13:05:21.892Z,5.87
2018-06-07T13:07:50.488Z,5.10
2018-06-07T13:10:19.099Z,8.10
2018-06-07T13:12:47.716Z,9.33
2018-06-07T13:15:16.720Z,9.83
2018-06-07T13:17:45.331Z,8.33
2018-06-07T13:20:13.918Z,12.37
2018-06-07T13:22:42.531Z,8.97
2018-06-07T13:25:11.689Z,7.23
2018-06-07T13:27:40.266Z,4.23
2018-06-07T13:30:08.867Z,7.30
2018-06-07T13:32:37.444Z,4.10
2018-06-07T13:35:06.110Z,4.80
2018-06-07T13:37:34.701Z,7.40
2018-06-07T13:40:03.596Z,6.00
2018-06-07T13:42:32.199Z,9.13
2018-06-07T13:45:00.833Z,5.43
2018-06-07T13:47:29.412Z,3.63
2018-06-07T13:49:58.119Z,7.07
2018-06-07T13:52:26.700Z,5.60
2018-06-07T13:54:55.302Z,7.77
2018-06-07T13:57:23.896Z,7.10
2018-06-07T13:59:52.476Z,7.43
2018-06-07T14:02:21.055Z,7.90
2018-06-07T14:04:49.651Z,5.50
2018-06-07T14:07:18.260Z,8.23
2018-06-07T14:09:47.019Z,5.43
2018-06-07T14:12:15.620Z,6.83
2018-06-07T14:14:43.847Z,7.23
2018-06-07T14:17:12.400Z,4.47
2018-06-07T14:19:41.253Z,4.77
2018-06-07T14:22:09.864Z,7.27
2018-06-07T14:24:38.507Z,6.07
2018-06-07T14:27:07.087Z,4.07
2018-06-07T14:29:35.685Z,3.83
2018-06-07T14:32:04.298Z,5.77
2018-06-07T14:34:32.900Z,5.17
2018-06-07T14:37:01.488Z,2.53
2018-06-07T14:39:30.380Z,2.87
2018-06-07T14:41:58.948Z,5.93
2018-06-07T14:44:27.540Z,5.40
2018-06-07T14:46:56.122Z,4.43
2018-06-07T14:49:25.912Z,3.77
2018-06-07T14:51:54.484Z,4.13
2018-06-07T14:54:23.052Z,2.53
2018-06-07T14:56:51.646Z,3.37
2018-06-07T14:59:20.255Z,4.03
2018-06-07T15:01:48.867Z,8.63
2018-06-07T15:04:17.455Z,2.23
2018-06-07T15:06:46.040Z,4.73
2018-06-07T15:09:14.665Z,7.63
2018-06-07T15:11:43.289Z,4.60
2018-06-07T15:14:12.032Z,4.97
2018-06-07T15:16:40.631Z,3.87
2018-06-07T15:19:09.212Z,2.70
2018-06-07T15:21:37.821Z,4.13
2018-06-07T15:24:06.564Z,7.53
2018-06-07T15:26:35.175Z,4.30
2018-06-07T15:29:03.768Z,7.90
2018-06-07T15:31:33.017Z,4.37
2018-06-07T15:34:01.672Z,2.93
2018-06-07T15:36:30.319Z,3.77
2018-06-07T15:38:58.900Z,4.70
2018-06-07T15:41:27.521Z,4.90
2018-06-07T15:43:56.716Z,5.83
2018-06-07T15:46:25.335Z,4.57
2018-06-07T15:48:53.930Z,3.23
2018-06-07T15:51:22.648Z,5.33
2018-06-07T15:53:51.260Z,4.60
2018-06-07T15:56:19.836Z,3.77
2018-06-07T15:58:48.452Z,3.53
2018-06-07T16:01:17.048Z,5.10
2018-06-07T16:03:45.644Z,8.53
2018-06-07T16:06:14.330Z,4.97
2018-06-07T16:08:42.941Z,6.30
2018-06-07T16:11:11.576Z,9.67
2018-06-07T16:13:40.170Z,3.23
2018-06-07T16:16:08.777Z,5.83
2018-06-07T16:18:37.449Z,2.90
2018-06-07T16:21:06.384Z,3.20
2018-06-07T16:23:34.743Z,2.60
2018-06-07T16:26:03.531Z,2.70
2018-06-07T16:28:32.115Z,3.20
2018-06-07T16:31:00.732Z,3.53
2018-06-07T16:33:29.334Z,2.57
2018-06-07T16:35:57.958Z,2.77
2018-06-07T16:38:26.588Z,5.33
2018-06-07T16:40:55.185Z,3.60
2018-06-07T16:43:24.239Z,2.17
2018-06-07T16:45:52.896Z,2.33
2018-06-07T16:48:21.492Z,2.43
2018-06-07T16:50:49.747Z,3.37
2018-06-07T16:53:18.343Z,1.93
2018-06-07T16:55:46.945Z,2.60
2018-06-07T16:58:15.278Z,2.33
2018-06-07T17:00:43.888Z,3.00
2018-06-07T17:03:12.497Z,2.03
2018-06-07T17:05:41.072Z,1.77
2018-06-07T17:08:09.485Z,4.03
2018-06-07T17:10:38.067Z,1.63
2018-06-07T17:13:06.666Z,4.10
2018-06-07T17:15:35.251Z,1.20
2018-06-07T17:18:03.887Z,1.97
2018-06-07T17:20:32.616Z,3.37
2018-06-07T17:23:01.265Z,2.60
2018-06-07T17:25:29.491Z,1.70
2018-06-07T17:27:58.061Z,5.40
2018-06-07T17:30:26.630Z,2.67
2018-06-07T17:32:56.028Z,4.63
2018-06-07T17:35:24.644Z,2.23
2018-06-07T17:37:53.199Z,4.60
2018-06-07T17:40:21.771Z,4.47
2018-06-07T17:42:50.346Z,1.20
2018-06-07T17:45:19.135Z,3.53
2018-06-07T17:47:47.888Z,1.93
2018-06-07T17:50:16.545Z,2.83
2018-06-07T17:52:45.124Z,2.90
2018-06-07T17:55:13.876Z,1.90
2018-06-07T17:57:42.499Z,1.57
2018-06-07T18:00:11.179Z,1.17
2018-06-07T18:02:39.772Z,4.67
2018-06-07T18:05:08.367Z,3.20
2018-06-07T18:07:36.952Z,4.37
2018-06-07T18:10:05.188Z,4.00
2018-06-07T18:12:33.861Z,2.47
2018-06-07T18:15:02.465Z,2.50
2018-06-07T18:17:31.086Z,2.40
2018-06-07T18:19:59.703Z,1.97
2018-06-07T18:22:28.304Z,4.87
2018-06-07T18:24:56.952Z,3.83
2018-06-07T18:27:26.249Z,1.57
2018-06-07T18:29:54.869Z,0.93
2018-06-07T18:32:23.451Z,1.17
2018-06-07T18:34:52.055Z,0.80
2018-06-07T18:37:20.647Z,0.77
2018-06-07T18:39:50.208Z,3.23
2018-06-07T18:42:18.788Z,1.10
2018-06-07T18:44:47.355Z,1.70
2018-06-07T18:47:16.232Z,2.00
2018-06-07T18:49:44.822Z,1.90
2018-06-07T18:52:13.407Z,3.07
2018-06-07T18:54:41.975Z,3.00
2018-06-07T18:57:10.616Z,0.97
2018-06-07T18:59:39.191Z,1.63
2018-06-07T19:02:07.855Z,2.27
2018-06-07T19:04:36.424Z,1.90
2018-06-07T19:07:05.050Z,2.07
2018-06-07T19:09:38.735Z,1.20
2018-06-07T19:12:07.320Z,1.97
2018-06-07T19:14:41.120Z,1.50
2018-06-07T19:17:09.687Z,1.03
2018-06-07T19:19:43.611Z,5.63
2018-06-07T19:22:12.368Z,1.40
2018-06-07T19:24:41.007Z,3.40
2018-06-07T19:27:14.772Z,1.80
2018-06-07T19:29:43.352Z,1.73
2018-06-07T19:32:17.207Z,1.00
2018-06-07T19:34:51.036Z,2.23
2018-06-07T19:37:19.660Z,1.83
2018-06-07T19:39:53.464Z,1.87
2018-06-07T19:42:22.080Z,5.23
2018-06-07T19:44:50.667Z,2.77
2018-06-07T19:47:19.241Z,1.73
2018-06-07T19:49:47.819Z,1.63
2018-06-07T19:52:16.538Z,1.53
2018-06-07T19:54:48.170Z,0.83
2018-06-07T19:57:16.892Z,0.50
2018-06-07T19:59:48.056Z,0.80
2018-06-07T20:02:17.821Z,1.00
2018-06-07T20:04:47.152Z,0.60
2018-06-07T20:07:17.208Z,1.10
2018-06-07T20:09:45.783Z,1.93
2018-06-07T20:12:14.366Z,0.80
2018-06-07T20:14:42.968Z,1.93
2018-06-07T20:17:11.584Z,4.10
2018-06-07T20:19:40.374Z,1.90
2018-06-07T20:22:09.059Z,1.03
2018-06-07T20:24:37.991Z,0.70
2018-06-07T20:27:06.625Z,0.93
2018-06-07T20:29:35.203Z,1.17
2018-06-07T20:32:03.825Z,3.40
2018-06-07T20:34:32.419Z,1.10
2018-06-07T20:37:13.183Z,1.23
2018-06-07T20:39:41.778Z,1.23
2018-06-07T20:42:10.360Z,1.87
2018-06-07T20:44:38.770Z,1.57
2018-06-07T20:47:11.533Z,0.70
2018-06-07T20:49:41.144Z,1.70
2018-06-07T20:52:13.156Z,1.10
2018-06-07T20:54:41.734Z,1.57
2018-06-07T20:57:10.316Z,2.10
2018-06-07T20:59:38.928Z,1.20
2018-06-07T21:02:07.517Z,1.03
2018-06-07T21:04:41.300Z,2.43
2018-06-07T21:07:09.871Z,1.77
2018-06-07T21:09:38.464Z,1.90
2018-06-07T21:12:07.045Z,0.60
2018-06-07T21:14:35.655Z,1.03
2018-06-07T21:17:04.254Z,2.13
2018-06-07T21:19:33.403Z,0.97
2018-06-07T21:22:01.985Z,1.47
2018-06-07T21:24:30.619Z,0.97
2018-06-07T21:26:59.202Z,2.00
2018-06-07T21:29:27.799Z,1.57
2018-06-07T21:31:56.363Z,0.90
2018-06-07T21:34:25.164Z,2.40
2018-06-07T21:36:53.731Z,0.93
2018-06-07T21:39:22.327Z,4.60
2018-06-07T21:41:51.219Z,1.00
2018-06-07T21:44:19.830Z,2.87
2018-06-07T21:46:48.907Z,2.30
2018-06-07T21:49:17.487Z,1.20
2018-06-07T21:51:46.815Z,1.40
2018-06-07T21:54:15.412Z,1.50
2018-06-07T21:56:44.783Z,2.50
2018-06-07T21:59:13.373Z,1.10
2018-06-07T22:01:42.366Z,3.03
2018-06-07T22:04:10.968Z,0.90
2018-06-07T22:06:39.572Z,0.70
2018-06-07T22:09:09.015Z,0.83
2018-06-07T22:11:37.932Z,2.30
2018-06-07T22:14:07.264Z,1.67
2018-06-07T22:16:35.852Z,0.80
2018-06-07T22:19:05.212Z,0.63
2018-06-07T22:21:33.789Z,1.63
2018-06-07T22:24:02.377Z,2.63
2018-06-07T22:26:30.943Z,1.27
2018-06-07T22:28:59.523Z,0.80
2018-06-07T22:31:28.119Z,1.07
2018-06-07T22:33:56.696Z,1.67
2018-06-07T22:36:25.296Z,1.63
2018-06-07T22:38:53.636Z,1.07
2018-06-07T22:41:22.226Z,0.90
2018-06-07T22:43:50.817Z,0.80
2018-06-07T22:46:19.054Z,0.80
2018-06-07T22:48:47.627Z,0.90
2018-06-07T22:51:16.224Z,1.30
2018-06-07T22:53:44.789Z,2.10
2018-06-07T22:56:13.406Z,2.50
2018-06-07T22:58:41.989Z,0.80
2018-06-07T23:01:10.552Z,3.83
2018-06-07T23:03:39.144Z,1.70
2018-06-07T23:06:07.711Z,3.77
2018-06-07T23:08:36.304Z,2.10
2018-06-07T23:11:04.884Z,1.43
2018-06-07T23:13:33.461Z,3.03
2018-06-07T23:16:02.244Z,0.80
2018-06-07T23:18:31.152Z,1.23
2018-06-07T23:20:59.783Z,0.70
2018-06-07T23:23:28.103Z,1.37
2018-06-07T23:25:56.734Z,1.93
2018-06-07T23:28:25.268Z,0.90
2018-06-07T23:30:53.840Z,0.83
2018-06-07T23:33:22.483Z,1.27
2018-06-07T23:35:51.076Z,1.00
2018-06-07T23:38:19.775Z,0.87
2018-06-07T23:40:48.348Z,1.23
2018-06-07T23:43:16.928Z,1.87
2018-06-07T23:45:45.524Z,0.83
2018-06-07T23:48:14.093Z,2.47
2018-06-07T23:50:42.659Z,1.27
2018-06-07T23:53:11.236Z,0.80
2018-06-07T23:55:39.805Z,1.07
2018-06-07T23:58:08.404Z,0.83
